createdAt,value
2023-07-27T00:01:50.955Z,17.00
2023-07-27T00:04:19.655Z,16.90
2023-07-27T00:06:48.272Z,17.00
2023-07-27T00:09:15.339Z,17.00
2023-07-27T00:11:42.322Z,17.00
2023-07-27T00:14:09.312Z,17.00
2023-07-27T00:16:36.667Z,17.00
2023-07-27T00:19:03.968Z,17.00
2023-07-27T00:21:30.947Z,17.00
2023-07-27T00:23:57.975Z,17.00
2023-07-27T00:26:24.947Z,17.00
2023-07-27T00:28:51.928Z,17.00
2023-07-27T00:31:18.868Z,17.00
2023-07-27T00:33:45.903Z,17.00
2023-07-27T00:36:14.222Z,17.00
2023-07-27T00:38:41.206Z,17.00
2023-07-27T00:41:08.867Z,17.00
2023-07-27T00:43:35.934Z,16.90
2023-07-27T00:46:02.906Z,16.90
2023-07-27T00:48:29.915Z,16.80
2023-07-27T00:50:56.925Z,16.80
2023-07-27T00:53:23.959Z,16.90
2023-07-27T00:55:50.927Z,16.80
2023-07-27T00:58:17.965Z,16.80
2023-07-27T01:00:44.980Z,16.80
2023-07-27T01:03:12.112Z,16.90
2023-07-27T01:05:39.314Z,16.90
2023-07-27T01:08:06.406Z,16.90
2023-07-27T01:10:39.741Z,16.90
2023-07-27T01:13:09.296Z,16.90
2023-07-27T01:15:37.475Z,16.90
2023-07-27T01:18:08.860Z,16.90
2023-07-27T01:20:40.587Z,16.90
2023-07-27T01:23:16.840Z,16.90
2023-07-27T01:25:49.606Z,16.90
2023-07-27T01:28:35.182Z,16.90
2023-07-27T01:31:11.289Z,16.80
2023-07-27T01:33:40.342Z,16.80
2023-07-27T01:36:15.007Z,16.80
2023-07-27T01:38:42.677Z,16.90
2023-07-27T01:41:09.703Z,16.90
2023-07-27T01:43:37.141Z,16.90
2023-07-27T01:46:04.625Z,16.90
2023-07-27T01:48:31.639Z,16.90
2023-07-27T01:50:58.571Z,17.00
2023-07-27T01:53:25.835Z,17.00
2023-07-27T01:55:52.772Z,16.90
2023-07-27T01:58:19.805Z,16.90
2023-07-27T02:00:46.781Z,16.90
2023-07-27T02:03:13.802Z,16.90
2023-07-27T02:05:40.791Z,16.90
2023-07-27T02:08:08.613Z,16.90
2023-07-27T02:10:35.637Z,16.90
2023-07-27T02:13:25.849Z,16.90
2023-07-27T02:15:55.536Z,16.90
2023-07-27T02:18:23.096Z,16.90
2023-07-27T02:20:50.291Z,16.90
2023-07-27T02:23:18.722Z,17.00
2023-07-27T02:25:46.029Z,17.00
2023-07-27T02:28:13.283Z,17.00
2023-07-27T02:30:40.646Z,17.00
2023-07-27T02:33:08.060Z,16.90
2023-07-27T02:35:35.113Z,17.00
2023-07-27T02:38:02.162Z,17.00
2023-07-27T02:40:31.421Z,17.00
2023-07-27T02:42:58.512Z,17.00
2023-07-27T02:45:25.625Z,17.00
2023-07-27T02:47:53.423Z,17.00
2023-07-27T02:50:21.893Z,17.00
2023-07-27T02:53:02.470Z,17.00
2023-07-27T02:55:30.142Z,17.00
2023-07-27T02:58:01.079Z,17.00
2023-07-27T03:00:31.953Z,16.90
2023-07-27T03:02:59.078Z,17.00
2023-07-27T03:05:26.099Z,17.00
2023-07-27T03:07:53.065Z,16.90
2023-07-27T03:10:21.458Z,16.90
2023-07-27T03:12:50.656Z,16.90
2023-07-27T03:15:17.614Z,17.00
2023-07-27T03:17:44.675Z,17.00
2023-07-27T03:20:11.820Z,17.00
2023-07-27T03:22:38.876Z,17.00
2023-07-27T03:25:05.998Z,17.00
2023-07-27T03:27:33.023Z,17.00
2023-07-27T03:29:59.953Z,17.10
2023-07-27T03:32:26.994Z,17.10
2023-07-27T03:34:53.947Z,17.10
2023-07-27T03:37:21.754Z,17.10
2023-07-27T03:39:48.731Z,17.10
2023-07-27T03:42:15.873Z,17.10
2023-07-27T03:44:45.234Z,17.10
2023-07-27T03:47:12.182Z,17.20
2023-07-27T03:49:39.198Z,17.20
2023-07-27T03:52:06.286Z,17.20
2023-07-27T03:54:33.281Z,17.20
2023-07-27T03:57:00.301Z,17.20
2023-07-27T03:59:27.773Z,17.30
2023-07-27T04:01:55.049Z,17.30
2023-07-27T04:04:24.186Z,17.20
2023-07-27T04:06:52.211Z,17.20
2023-07-27T04:09:19.461Z,17.20
2023-07-27T04:11:46.418Z,17.30
2023-07-27T04:14:13.426Z,17.30
2023-07-27T04:16:40.407Z,17.30
2023-07-27T04:19:07.457Z,17.30
2023-07-27T04:21:35.540Z,17.30
2023-07-27T04:24:02.741Z,17.30
2023-07-27T04:26:30.201Z,17.40
2023-07-27T04:28:57.268Z,17.40
2023-07-27T04:31:24.263Z,17.40
2023-07-27T04:33:51.243Z,17.40
2023-07-27T04:36:18.259Z,17.40
2023-07-27T04:38:45.265Z,17.50
2023-07-27T04:41:12.414Z,17.40
2023-07-27T04:43:39.411Z,17.50
2023-07-27T04:46:06.400Z,17.50
2023-07-27T04:48:33.380Z,17.50
2023-07-27T04:51:00.496Z,17.50
2023-07-27T04:53:27.517Z,17.50
2023-07-27T04:55:54.762Z,17.40
2023-07-27T04:58:21.832Z,17.50
2023-07-27T05:00:55.377Z,17.50
2023-07-27T05:03:22.450Z,17.50
2023-07-27T05:05:49.379Z,17.50
2023-07-27T05:08:16.397Z,17.60
2023-07-27T05:10:43.360Z,17.60
2023-07-27T05:13:10.343Z,17.60
2023-07-27T05:15:39.209Z,17.70
2023-07-27T05:18:06.193Z,17.70
2023-07-27T05:20:36.226Z,17.70
2023-07-27T05:23:03.224Z,17.70
2023-07-27T05:25:30.234Z,17.70
2023-07-27T05:27:57.392Z,17.80
2023-07-27T05:30:24.375Z,17.70
2023-07-27T05:32:51.355Z,17.70
2023-07-27T05:35:18.269Z,17.70
2023-07-27T05:37:47.884Z,17.70
2023-07-27T05:40:15.614Z,17.80
2023-07-27T05:42:42.791Z,17.80
2023-07-27T05:45:09.996Z,17.80
2023-07-27T05:47:37.093Z,17.80
2023-07-27T05:50:04.245Z,17.90
2023-07-27T05:52:31.230Z,17.90
2023-07-27T05:54:58.215Z,17.90
2023-07-27T05:57:25.418Z,17.90
2023-07-27T06:00:04.258Z,17.90
2023-07-27T06:02:33.849Z,17.90
2023-07-27T06:05:00.788Z,17.90
2023-07-27T06:07:27.974Z,17.90
2023-07-27T06:09:55.002Z,17.90
2023-07-27T06:12:22.062Z,18.00
2023-07-27T06:14:49.064Z,18.00
2023-07-27T06:17:16.083Z,18.00
2023-07-27T06:19:43.057Z,18.00
2023-07-27T06:22:10.068Z,18.00
2023-07-27T06:24:37.065Z,18.00
2023-07-27T06:27:04.188Z,18.00
2023-07-27T06:29:31.597Z,18.00
2023-07-27T06:31:58.659Z,18.00
2023-07-27T06:34:26.506Z,18.10
2023-07-27T06:36:53.475Z,18.20
2023-07-27T06:39:20.428Z,18.20
2023-07-27T06:41:47.404Z,18.20
2023-07-27T06:44:14.472Z,18.20
2023-07-27T06:46:41.630Z,18.30
2023-07-27T06:49:08.635Z,18.30
2023-07-27T06:51:36.390Z,18.40
2023-07-27T06:54:03.487Z,18.40
2023-07-27T06:56:30.485Z,18.40
2023-07-27T06:58:57.494Z,18.60
2023-07-27T07:01:24.456Z,18.60
2023-07-27T07:03:51.661Z,18.60
2023-07-27T07:06:18.717Z,18.70
2023-07-27T07:08:45.784Z,18.70
2023-07-27T07:11:12.805Z,18.70
2023-07-27T07:13:39.791Z,18.80
2023-07-27T07:16:06.784Z,18.80
2023-07-27T07:18:33.744Z,18.80
2023-07-27T07:21:00.798Z,18.70
2023-07-27T07:23:27.745Z,18.80
2023-07-27T07:25:54.705Z,18.90
2023-07-27T07:28:21.650Z,18.90
2023-07-27T07:30:48.618Z,19.00
2023-07-27T07:33:16.184Z,19.00
2023-07-27T07:35:43.680Z,19.00
2023-07-27T07:38:10.728Z,19.00
2023-07-27T07:40:37.750Z,19.00
2023-07-27T07:43:04.827Z,19.10
2023-07-27T07:45:34.550Z,19.10
2023-07-27T07:48:01.666Z,19.10
2023-07-27T07:50:28.830Z,19.20
2023-07-27T07:52:56.396Z,19.30
2023-07-27T07:55:23.518Z,19.40
2023-07-27T07:57:50.488Z,19.40
2023-07-27T08:00:17.580Z,19.50
2023-07-27T08:02:45.971Z,19.70
2023-07-27T08:05:13.087Z,19.70
2023-07-27T08:07:40.102Z,19.80
2023-07-27T08:10:07.409Z,19.80
2023-07-27T08:12:34.827Z,20.00
2023-07-27T08:15:02.494Z,20.10
2023-07-27T08:17:30.835Z,20.40
2023-07-27T08:19:57.848Z,20.60
2023-07-27T08:22:25.443Z,20.80
2023-07-27T08:24:58.002Z,20.90
2023-07-27T08:27:30.531Z,20.90
2023-07-27T08:29:57.462Z,20.90
2023-07-27T08:32:24.415Z,21.10
2023-07-27T08:34:51.436Z,21.20
2023-07-27T08:37:18.402Z,21.40
2023-07-27T08:39:45.472Z,21.40
2023-07-27T08:42:16.349Z,21.40
2023-07-27T08:44:45.209Z,21.30
2023-07-27T08:47:12.158Z,21.40
2023-07-27T08:49:39.283Z,21.20
2023-07-27T08:52:06.318Z,21.20
2023-07-27T08:54:35.794Z,21.10
2023-07-27T08:57:04.524Z,21.30
2023-07-27T08:59:31.509Z,21.40
2023-07-27T09:01:58.586Z,21.40
2023-07-27T09:04:25.602Z,21.40
2023-07-27T09:06:52.613Z,21.30
2023-07-27T09:09:20.298Z,21.20
2023-07-27T09:11:48.192Z,21.30
2023-07-27T09:14:15.730Z,21.20
2023-07-27T09:16:42.816Z,21.40
2023-07-27T09:19:09.948Z,21.50
2023-07-27T09:21:40.703Z,21.70
2023-07-27T09:24:12.665Z,21.80
2023-07-27T09:26:46.819Z,21.80
2023-07-27T09:29:14.559Z,21.60
2023-07-27T09:31:48.248Z,21.80
2023-07-27T09:34:15.726Z,21.90
2023-07-27T09:36:42.787Z,22.00
2023-07-27T09:39:10.857Z,22.00
2023-07-27T09:41:38.139Z,21.90
2023-07-27T09:44:06.120Z,22.00
2023-07-27T09:46:33.715Z,22.20
2023-07-27T09:49:01.292Z,22.20
2023-07-27T09:51:31.828Z,22.10
2023-07-27T09:53:59.088Z,22.10
2023-07-27T09:56:26.015Z,22.20
2023-07-27T09:58:52.987Z,22.20
2023-07-27T10:01:20.105Z,22.20
2023-07-27T10:03:47.317Z,22.20
2023-07-27T10:06:17.921Z,22.10
2023-07-27T10:08:45.209Z,22.10
2023-07-27T10:11:12.240Z,22.10
2023-07-27T10:13:40.258Z,22.10
2023-07-27T10:16:08.816Z,21.90
2023-07-27T10:18:40.184Z,21.90
2023-07-27T10:21:22.629Z,21.90
2023-07-27T10:23:59.792Z,21.90
2023-07-27T10:26:45.725Z,21.90
2023-07-27T10:29:16.869Z,22.10
2023-07-27T10:31:45.227Z,22.10
2023-07-27T10:34:25.333Z,22.00
2023-07-27T10:36:54.229Z,21.90
2023-07-27T10:39:25.749Z,21.80
2023-07-27T10:42:01.760Z,21.90
2023-07-27T10:44:48.373Z,22.10
2023-07-27T10:47:16.533Z,22.40
2023-07-27T10:49:44.340Z,22.30
2023-07-27T10:52:14.771Z,22.40
2023-07-27T10:54:41.953Z,22.60
2023-07-27T10:57:09.806Z,22.80
2023-07-27T10:59:37.258Z,22.80
2023-07-27T11:02:05.072Z,22.80
2023-07-27T11:04:35.375Z,23.10
2023-07-27T11:07:02.541Z,23.30
2023-07-27T11:09:29.597Z,23.30
2023-07-27T11:11:59.682Z,23.50
2023-07-27T11:14:26.804Z,23.50
2023-07-27T11:16:53.955Z,23.50
2023-07-27T11:19:21.338Z,23.50
2023-07-27T11:21:48.486Z,23.50
2023-07-27T11:24:17.362Z,23.60
2023-07-27T11:26:44.363Z,23.70
2023-07-27T11:29:11.367Z,23.70
2023-07-27T11:31:38.296Z,23.90
2023-07-27T11:34:06.742Z,23.90
2023-07-27T11:36:35.675Z,24.10
2023-07-27T11:39:02.913Z,24.30
2023-07-27T11:44:00.977Z,24.30
2023-07-27T11:46:28.401Z,24.30
2023-07-27T11:51:27.454Z,24.10
2023-07-27T11:53:54.573Z,24.00
2023-07-27T11:56:21.538Z,24.10
2023-07-27T11:58:50.127Z,23.90
2023-07-27T12:01:17.300Z,23.90
2023-07-27T12:03:46.875Z,24.40
2023-07-27T12:06:14.527Z,24.50
2023-07-27T12:11:40.674Z,24.90
2023-07-27T12:14:03.421Z,25.00
2023-07-27T12:19:08.607Z,25.30
2023-07-27T12:21:38.839Z,24.90
2023-07-27T12:34:09.076Z,24.40
2023-07-27T12:36:36.065Z,24.20
2023-07-27T12:39:03.300Z,24.20
2023-07-27T12:41:30.251Z,24.30
2023-07-27T12:43:58.329Z,24.60
2023-07-27T12:46:25.401Z,24.70
2023-07-27T12:48:52.537Z,24.90
2023-07-27T12:51:19.480Z,24.80
2023-07-27T12:53:46.409Z,24.70
2023-07-27T12:56:13.400Z,24.50
2023-07-27T12:58:40.392Z,24.20
2023-07-27T13:01:07.341Z,23.80
2023-07-27T13:03:35.671Z,23.80
2023-07-27T13:06:03.409Z,23.90
2023-07-27T13:08:30.696Z,24.10
2023-07-27T13:10:57.679Z,24.00
2023-07-27T13:13:24.622Z,23.80
2023-07-27T13:15:51.631Z,23.80
2023-07-27T13:18:18.572Z,24.00
2023-07-27T13:20:45.544Z,24.00
2023-07-27T13:23:12.591Z,24.20
2023-07-27T13:25:39.689Z,24.20
2023-07-27T13:28:06.887Z,24.00
2023-07-27T13:30:34.686Z,24.20
2023-07-27T13:33:02.828Z,24.30
2023-07-27T13:35:30.582Z,24.40
2023-07-27T13:37:57.672Z,24.50
2023-07-27T13:40:24.751Z,24.60
2023-07-27T13:42:52.775Z,24.40
2023-07-27T13:45:19.763Z,24.20
2023-07-27T13:48:02.387Z,24.20
2023-07-27T13:50:34.597Z,24.20
2023-07-27T13:53:01.723Z,24.30
2023-07-27T13:55:28.745Z,24.40
2023-07-27T13:57:55.745Z,24.40
2023-07-27T14:00:22.974Z,24.40
2023-07-27T14:02:50.128Z,24.30
2023-07-27T14:05:18.761Z,24.30
2023-07-27T14:07:45.956Z,24.40
2023-07-27T14:10:13.563Z,24.50
2023-07-27T14:12:40.687Z,24.60
2023-07-27T14:15:08.045Z,24.60
2023-07-27T14:17:35.292Z,24.60
2023-07-27T14:20:02.476Z,24.50
2023-07-27T14:22:34.263Z,24.40
2023-07-27T14:25:01.349Z,24.30
2023-07-27T14:29:58.707Z,24.30
2023-07-27T14:32:25.906Z,24.20
2023-07-27T14:34:52.938Z,24.20
2023-07-27T14:37:19.926Z,24.20
2023-07-27T14:39:48.669Z,24.20
2023-07-27T14:42:15.864Z,24.30
2023-07-27T14:44:46.448Z,24.30
2023-07-27T14:47:13.708Z,24.30
2023-07-27T14:49:40.772Z,24.20
2023-07-27T14:52:08.855Z,24.10
2023-07-27T14:54:36.004Z,24.10
2023-07-27T14:57:03.257Z,23.90
2023-07-27T14:59:42.203Z,23.80
2023-07-27T15:02:14.270Z,23.90
2023-07-27T15:07:11.676Z,23.90
2023-07-27T15:09:40.205Z,24.10
2023-07-27T15:12:08.676Z,24.30
2023-07-27T15:14:35.818Z,24.50
2023-07-27T15:17:02.991Z,24.40
2023-07-27T15:19:30.008Z,24.60
2023-07-27T15:21:56.956Z,24.60
2023-07-27T15:24:23.999Z,24.40
2023-07-27T15:26:51.346Z,24.40
2023-07-27T15:29:18.434Z,24.30
2023-07-27T15:31:45.568Z,24.30
2023-07-27T15:34:12.675Z,24.40
2023-07-27T15:36:39.648Z,24.30
2023-07-27T15:39:06.582Z,24.00
2023-07-27T15:41:33.694Z,24.10
2023-07-27T15:44:00.998Z,24.10
2023-07-27T15:46:28.078Z,24.20
2023-07-27T15:48:55.085Z,24.00
2023-07-27T15:51:22.070Z,23.90
2023-07-27T15:53:49.267Z,23.90
2023-07-27T15:56:16.482Z,23.90
2023-07-27T15:58:43.451Z,23.90
2023-07-27T16:01:10.667Z,23.90
2023-07-27T16:03:37.756Z,23.80
2023-07-27T16:06:05.610Z,23.80
2023-07-27T16:08:32.613Z,23.60
2023-07-27T16:10:59.653Z,23.70
2023-07-27T16:13:26.713Z,23.80
2023-07-27T16:15:53.808Z,23.80
2023-07-27T16:18:20.885Z,23.80
2023-07-27T16:20:48.008Z,23.90
2023-07-27T16:23:16.825Z,23.90
2023-07-27T16:25:44.777Z,23.80
2023-07-27T16:28:11.868Z,23.90
2023-07-27T16:30:44.978Z,24.00
2023-07-27T16:33:12.129Z,24.00
2023-07-27T16:35:39.227Z,23.90
2023-07-27T16:38:06.206Z,23.70
2023-07-27T16:40:33.175Z,23.70
2023-07-27T16:43:00.172Z,23.50
2023-07-27T16:45:27.105Z,23.50
2023-07-27T16:47:54.197Z,23.30
2023-07-27T16:50:21.786Z,23.20
2023-07-27T16:52:50.071Z,23.10
2023-07-27T16:55:17.091Z,23.00
2023-07-27T16:57:45.086Z,23.00
2023-07-27T17:00:12.332Z,23.00
2023-07-27T17:02:39.418Z,22.90
2023-07-27T17:05:06.714Z,22.90
2023-07-27T17:07:34.185Z,22.80
2023-07-27T17:10:01.549Z,22.70
2023-07-27T17:12:28.808Z,22.70
2023-07-27T17:14:55.941Z,22.60
2023-07-27T17:17:22.990Z,22.60
2023-07-27T17:19:50.003Z,22.70
2023-07-27T17:22:16.957Z,22.80
2023-07-27T17:24:43.879Z,22.80
2023-07-27T17:27:10.849Z,22.70
2023-07-27T17:29:37.873Z,22.70
2023-07-27T17:32:06.032Z,22.70
2023-07-27T17:34:33.983Z,22.70
2023-07-27T17:37:00.990Z,22.80
2023-07-27T17:39:28.000Z,22.90
2023-07-27T17:41:55.001Z,23.00
2023-07-27T17:44:21.964Z,22.90
2023-07-27T17:46:48.977Z,22.80
2023-07-27T17:49:16.125Z,22.80
2023-07-27T17:51:43.131Z,22.80
2023-07-27T17:54:10.892Z,22.80
2023-07-27T17:56:37.853Z,22.90
2023-07-27T17:59:04.841Z,22.90
2023-07-27T18:01:32.122Z,22.90
2023-07-27T18:03:59.436Z,22.80
2023-07-27T18:06:26.498Z,22.80
2023-07-27T18:08:53.548Z,22.80
2023-07-27T18:11:20.511Z,22.70
2023-07-27T18:13:47.481Z,22.70
2023-07-27T18:16:14.826Z,22.60
2023-07-27T18:18:42.005Z,22.50
2023-07-27T18:21:09.573Z,22.50
2023-07-27T18:23:36.752Z,22.40
2023-07-27T18:26:03.779Z,22.40
2023-07-27T18:28:31.630Z,22.30
2023-07-27T18:30:59.068Z,22.20
2023-07-27T18:33:26.041Z,22.20
2023-07-27T18:35:53.013Z,22.10
2023-07-27T18:38:19.943Z,22.10
2023-07-27T18:40:46.876Z,22.10
2023-07-27T18:43:13.842Z,22.00
2023-07-27T18:45:53.611Z,22.00
2023-07-27T18:48:20.962Z,22.00
2023-07-27T18:50:47.904Z,22.00
2023-07-27T18:53:14.860Z,21.90
2023-07-27T18:55:41.793Z,21.80
2023-07-27T18:58:08.720Z,21.80
2023-07-27T19:00:35.782Z,21.80
2023-07-27T19:03:04.764Z,21.70
2023-07-27T19:05:32.240Z,21.70
2023-07-27T19:07:59.173Z,21.70
2023-07-27T19:10:26.102Z,21.60
2023-07-27T19:12:53.057Z,21.60
2023-07-27T19:15:20.009Z,21.60
2023-07-27T19:17:47.113Z,21.60
2023-07-27T19:20:14.139Z,21.50
2023-07-27T19:22:41.121Z,21.60
2023-07-27T19:25:08.265Z,21.50
2023-07-27T19:27:35.248Z,21.40
2023-07-27T19:30:02.221Z,21.40
2023-07-27T19:32:29.249Z,21.30
2023-07-27T19:34:56.187Z,21.30
2023-07-27T19:37:23.154Z,21.30
2023-07-27T19:39:50.142Z,21.30
2023-07-27T19:42:17.151Z,21.30
2023-07-27T19:44:44.070Z,21.20
2023-07-27T19:47:11.037Z,21.20
2023-07-27T19:49:47.462Z,21.20
2023-07-27T19:52:17.789Z,21.10
2023-07-27T19:54:44.777Z,21.10
2023-07-27T19:57:11.699Z,21.10
2023-07-27T19:59:38.798Z,21.00
2023-07-27T20:02:05.779Z,21.00
2023-07-27T20:04:32.719Z,21.00
2023-07-27T20:06:59.694Z,20.90
2023-07-27T20:09:27.736Z,20.90
2023-07-27T20:11:54.708Z,20.90
2023-07-27T20:14:33.379Z,20.80
2023-07-27T20:17:02.068Z,20.80
2023-07-27T20:19:29.465Z,20.80
2023-07-27T20:21:56.575Z,20.70
2023-07-27T20:24:24.215Z,20.70
2023-07-27T20:26:51.227Z,20.70
2023-07-27T20:29:22.506Z,20.70
2023-07-27T20:31:49.684Z,20.70
2023-07-27T20:34:16.614Z,20.70
2023-07-27T20:36:43.623Z,20.70
2023-07-27T20:39:10.589Z,20.70
2023-07-27T20:41:37.524Z,20.70
2023-07-27T20:44:04.587Z,20.70
2023-07-27T20:46:31.582Z,20.70
2023-07-27T20:48:58.539Z,20.60
2023-07-27T20:51:25.635Z,20.60
2023-07-27T20:53:52.606Z,20.60
2023-07-27T20:56:19.793Z,20.60
2023-07-27T20:58:47.016Z,20.60
2023-07-27T21:01:14.130Z,20.60
2023-07-27T21:03:41.218Z,20.60
2023-07-27T21:06:08.883Z,20.50
2023-07-27T21:08:36.618Z,20.60
2023-07-27T21:11:04.152Z,20.60
2023-07-27T21:13:31.548Z,20.50
2023-07-27T21:16:02.161Z,20.50
2023-07-27T21:18:29.227Z,20.50
2023-07-27T21:20:56.204Z,20.50
2023-07-27T21:23:23.437Z,20.40
2023-07-27T21:25:59.936Z,20.30
2023-07-27T21:28:27.340Z,20.30
2023-07-27T21:30:55.174Z,20.20
2023-07-27T21:33:28.398Z,20.20
2023-07-27T21:35:56.362Z,20.10
2023-07-27T21:38:23.347Z,20.00
2023-07-27T21:40:50.276Z,20.00
2023-07-27T21:43:20.452Z,20.00
2023-07-27T21:45:47.998Z,19.90
2023-07-27T21:48:15.001Z,19.90
2023-07-27T21:50:44.332Z,19.90
2023-07-27T21:53:11.262Z,19.90
2023-07-27T21:55:38.248Z,19.90
2023-07-27T21:58:05.240Z,19.90
2023-07-27T22:00:32.297Z,19.90
2023-07-27T22:02:59.277Z,20.00
2023-07-27T22:05:26.369Z,20.00
2023-07-27T22:07:53.308Z,20.00
2023-07-27T22:10:20.351Z,19.90
2023-07-27T22:12:47.312Z,19.90
2023-07-27T22:15:15.125Z,19.80
2023-07-27T22:17:48.933Z,19.80
2023-07-27T22:20:16.074Z,19.80
2023-07-27T22:22:43.035Z,19.80
2023-07-27T22:25:11.409Z,19.90
2023-07-27T22:27:38.545Z,19.80
2023-07-27T22:30:05.807Z,19.80
2023-07-27T22:32:32.788Z,19.80
2023-07-27T22:34:59.782Z,19.80
2023-07-27T22:37:26.833Z,19.80
2023-07-27T22:39:53.988Z,19.80
2023-07-27T22:42:20.931Z,19.80
2023-07-27T22:44:47.938Z,19.80
2023-07-27T22:47:14.960Z,19.80
2023-07-27T22:49:42.064Z,19.70
2023-07-27T22:52:09.140Z,19.70
2023-07-27T22:54:36.140Z,19.60
2023-07-27T22:57:03.071Z,19.60
2023-07-27T22:59:30.070Z,19.50
2023-07-27T23:01:57.931Z,19.50
2023-07-27T23:04:25.502Z,19.50
2023-07-27T23:06:52.487Z,19.50
2023-07-27T23:09:19.456Z,19.50
2023-07-27T23:11:46.422Z,19.50
2023-07-27T23:14:13.365Z,19.50
2023-07-27T23:16:40.334Z,19.50
2023-07-27T23:19:07.331Z,19.50
2023-07-27T23:21:34.310Z,19.60
2023-07-27T23:24:01.270Z,19.50
2023-07-27T23:26:28.172Z,19.50
2023-07-27T23:28:55.138Z,19.50
2023-07-27T23:31:22.151Z,19.50
2023-07-27T23:33:49.123Z,19.60
2023-07-27T23:36:16.036Z,19.60
2023-07-27T23:38:42.962Z,19.60
2023-07-27T23:41:09.920Z,19.60
2023-07-27T23:43:37.065Z,19.60
2023-07-27T23:46:04.059Z,19.60
2023-07-27T23:48:31.102Z,19.60
2023-07-27T23:50:58.033Z,19.60
2023-07-27T23:53:24.997Z,19.70
2023-07-27T23:55:52.050Z,19.70
2023-07-27T23:58:19.006Z,19.60
